sensor_id;sensor_type;location;lat;lon;timestamp;P1;durP1;ratioP1;P2;durP2;ratioP2
8151;SDS011;4117;53.622;9.958;2023-09-19T00:00:41;2.77;;;1.30;;
8151;SDS011;4117;53.622;9.958;2023-09-19T00:03:12;4.87;;;1.57;;
8151;SDS011;4117;53.622;9.958;2023-09-19T00:05:40;1.60;;;1.20;;
8151;SDS011;4117;53.622;9.958;2023-09-19T00:08:09;5.17;;;1.40;;
8151;SDS011;4117;53.622;9.958;2023-09-19T00:10:38;4.87;;;1.60;;
8151;SDS011;4117;53.622;9.958;2023-09-19T00:13:06;2.73;;;1.50;;
8151;SDS011;4117;53.622;9.958;2023-09-19T00:15:38;2.13;;;1.30;;
8151;SDS011;4117;53.622;9.958;2023-09-19T00:18:07;3.40;;;1.40;;
8151;SDS011;4117;53.622;9.958;2023-09-19T00:20:35;3.30;;;1.50;;
8151;SDS011;4117;53.622;9.958;2023-09-19T00:23:04;4.23;;;1.50;;
8151;SDS011;4117;53.622;9.958;2023-09-19T00:25:34;2.80;;;1.50;;
8151;SDS011;4117;53.622;9.958;2023-09-19T00:28:02;2.43;;;1.40;;
8151;SDS011;4117;53.622;9.958;2023-09-19T00:30:30;2.07;;;1.30;;
8151;SDS011;4117;53.622;9.958;2023-09-19T00:32:58;2.70;;;1.30;;
8151;SDS011;4117;53.622;9.958;2023-09-19T00:35:26;2.10;;;1.37;;
8151;SDS011;4117;53.622;9.958;2023-09-19T00:37:53;4.07;;;1.83;;
8151;SDS011;4117;53.622;9.958;2023-09-19T00:40:22;3.63;;;1.50;;
8151;SDS011;4117;53.622;9.958;2023-09-19T00:42:50;5.87;;;1.70;;
8151;SDS011;4117;53.622;9.958;2023-09-19T00:45:18;0.37;;;0.37;;
8151;SDS011;4117;53.622;9.958;2023-09-19T00:47:46;4.47;;;1.70;;
8151;SDS011;4117;53.622;9.958;2023-09-19T00:50:16;4.40;;;1.50;;
8151;SDS011;4117;53.622;9.958;2023-09-19T00:52:44;3.80;;;1.70;;
8151;SDS011;4117;53.622;9.958;2023-09-19T00:55:15;2.67;;;1.83;;
8151;SDS011;4117;53.622;9.958;2023-09-19T00:57:46;3.20;;;2.03;;
8151;SDS011;4117;53.622;9.958;2023-09-19T01:00:15;4.97;;;1.70;;
8151;SDS011;4117;53.622;9.958;2023-09-19T01:02:45;2.70;;;1.67;;
8151;SDS011;4117;53.622;9.958;2023-09-19T01:05:12;4.10;;;2.00;;
8151;SDS011;4117;53.622;9.958;2023-09-19T01:07:39;4.77;;;2.00;;
8151;SDS011;4117;53.622;9.958;2023-09-19T01:10:07;4.27;;;1.87;;
8151;SDS011;4117;53.622;9.958;2023-09-19T01:12:39;5.47;;;2.03;;
8151;SDS011;4117;53.622;9.958;2023-09-19T01:15:19;0.87;;;0.77;;
8151;SDS011;4117;53.622;9.958;2023-09-19T01:17:56;11.90;;;3.23;;
8151;SDS011;4117;53.622;9.958;2023-09-19T01:20:30;9.83;;;2.83;;
8151;SDS011;4117;53.622;9.958;2023-09-19T01:23:07;5.90;;;2.30;;
8151;SDS011;4117;53.622;9.958;2023-09-19T01:28:37;3.87;;;2.03;;
8151;SDS011;4117;53.622;9.958;2023-09-19T01:31:22;3.30;;;1.80;;
8151;SDS011;4117;53.622;9.958;2023-09-19T01:33:54;4.70;;;2.00;;
8151;SDS011;4117;53.622;9.958;2023-09-19T01:36:22;2.33;;;1.43;;
8151;SDS011;4117;53.622;9.958;2023-09-19T01:38:49;5.47;;;2.20;;
8151;SDS011;4117;53.622;9.958;2023-09-19T01:41:17;5.50;;;2.30;;
8151;SDS011;4117;53.622;9.958;2023-09-19T01:43:49;3.00;;;2.03;;
8151;SDS011;4117;53.622;9.958;2023-09-19T01:46:17;4.70;;;2.07;;
8151;SDS011;4117;53.622;9.958;2023-09-19T01:48:54;1.73;;;1.20;;
8151;SDS011;4117;53.622;9.958;2023-09-19T01:51:42;6.47;;;2.20;;
8151;SDS011;4117;53.622;9.958;2023-09-19T01:54:16;4.50;;;2.17;;
8151;SDS011;4117;53.622;9.958;2023-09-19T01:56:52;3.27;;;1.70;;
8151;SDS011;4117;53.622;9.958;2023-09-19T01:59:28;4.77;;;2.07;;
8151;SDS011;4117;53.622;9.958;2023-09-19T02:02:03;2.50;;;1.60;;
8151;SDS011;4117;53.622;9.958;2023-09-19T02:04:32;4.83;;;1.90;;
8151;SDS011;4117;53.622;9.958;2023-09-19T02:07:00;4.43;;;1.93;;
8151;SDS011;4117;53.622;9.958;2023-09-19T02:09:27;5.67;;;2.00;;
8151;SDS011;4117;53.622;9.958;2023-09-19T02:11:54;5.43;;;2.03;;
8151;SDS011;4117;53.622;9.958;2023-09-19T02:14:22;3.80;;;1.80;;
8151;SDS011;4117;53.622;9.958;2023-09-19T02:16:49;4.43;;;1.40;;
8151;SDS011;4117;53.622;9.958;2023-09-19T02:19:17;3.00;;;1.60;;
8151;SDS011;4117;53.622;9.958;2023-09-19T02:21:46;4.53;;;1.70;;
8151;SDS011;4117;53.622;9.958;2023-09-19T02:24:13;4.13;;;1.93;;
8151;SDS011;4117;53.622;9.958;2023-09-19T02:26:41;4.60;;;1.90;;
8151;SDS011;4117;53.622;9.958;2023-09-19T02:29:09;4.20;;;2.00;;
8151;SDS011;4117;53.622;9.958;2023-09-19T02:31:38;4.33;;;1.90;;
8151;SDS011;4117;53.622;9.958;2023-09-19T02:34:05;4.80;;;2.00;;
8151;SDS011;4117;53.622;9.958;2023-09-19T02:36:52;5.07;;;1.93;;
8151;SDS011;4117;53.622;9.958;2023-09-19T02:39:20;4.23;;;2.20;;
8151;SDS011;4117;53.622;9.958;2023-09-19T02:41:48;3.70;;;2.10;;
8151;SDS011;4117;53.622;9.958;2023-09-19T02:44:16;5.10;;;2.30;;
8151;SDS011;4117;53.622;9.958;2023-09-19T02:46:45;5.17;;;2.13;;
8151;SDS011;4117;53.622;9.958;2023-09-19T02:49:13;6.07;;;2.07;;
8151;SDS011;4117;53.622;9.958;2023-09-19T02:51:40;4.37;;;2.27;;
8151;SDS011;4117;53.622;9.958;2023-09-19T02:54:09;4.07;;;2.23;;
8151;SDS011;4117;53.622;9.958;2023-09-19T02:56:37;5.77;;;2.23;;
8151;SDS011;4117;53.622;9.958;2023-09-19T02:59:04;6.03;;;2.20;;
8151;SDS011;4117;53.622;9.958;2023-09-19T03:01:32;4.50;;;2.20;;
8151;SDS011;4117;53.622;9.958;2023-09-19T03:03:59;5.53;;;2.00;;
8151;SDS011;4117;53.622;9.958;2023-09-19T03:06:27;10.50;;;2.43;;
8151;SDS011;4117;53.622;9.958;2023-09-19T03:08:56;4.20;;;2.30;;
8151;SDS011;4117;53.622;9.958;2023-09-19T03:11:38;5.20;;;2.10;;
8151;SDS011;4117;53.622;9.958;2023-09-19T03:14:07;3.63;;;1.80;;
8151;SDS011;4117;53.622;9.958;2023-09-19T03:16:35;5.97;;;1.70;;
8151;SDS011;4117;53.622;9.958;2023-09-19T03:19:02;5.67;;;1.83;;
8151;SDS011;4117;53.622;9.958;2023-09-19T03:21:30;4.73;;;1.90;;
8151;SDS011;4117;53.622;9.958;2023-09-19T03:23:57;4.30;;;1.80;;
8151;SDS011;4117;53.622;9.958;2023-09-19T03:26:24;3.90;;;2.07;;
8151;SDS011;4117;53.622;9.958;2023-09-19T03:28:53;5.80;;;1.90;;
8151;SDS011;4117;53.622;9.958;2023-09-19T03:31:20;4.37;;;1.93;;
8151;SDS011;4117;53.622;9.958;2023-09-19T03:33:47;7.13;;;2.00;;
8151;SDS011;4117;53.622;9.958;2023-09-19T03:36:14;5.10;;;2.00;;
8151;SDS011;4117;53.622;9.958;2023-09-19T03:38:41;5.23;;;2.00;;
8151;SDS011;4117;53.622;9.958;2023-09-19T03:41:09;6.97;;;1.90;;
8151;SDS011;4117;53.622;9.958;2023-09-19T03:43:39;4.97;;;1.80;;
8151;SDS011;4117;53.622;9.958;2023-09-19T03:46:07;4.10;;;1.70;;
8151;SDS011;4117;53.622;9.958;2023-09-19T03:48:34;6.10;;;2.30;;
8151;SDS011;4117;53.622;9.958;2023-09-19T03:51:04;8.03;;;2.10;;
8151;SDS011;4117;53.622;9.958;2023-09-19T03:53:31;4.67;;;1.83;;
8151;SDS011;4117;53.622;9.958;2023-09-19T03:55:58;6.50;;;2.13;;
8151;SDS011;4117;53.622;9.958;2023-09-19T03:58:26;7.97;;;1.93;;
8151;SDS011;4117;53.622;9.958;2023-09-19T04:00:54;6.67;;;1.80;;
8151;SDS011;4117;53.622;9.958;2023-09-19T04:03:23;5.10;;;1.80;;
8151;SDS011;4117;53.622;9.958;2023-09-19T04:05:59;5.00;;;2.20;;
8151;SDS011;4117;53.622;9.958;2023-09-19T04:08:27;5.33;;;1.93;;
8151;SDS011;4117;53.622;9.958;2023-09-19T04:10:54;3.90;;;1.70;;
8151;SDS011;4117;53.622;9.958;2023-09-19T04:13:22;6.87;;;1.93;;
8151;SDS011;4117;53.622;9.958;2023-09-19T04:15:49;5.23;;;1.90;;
8151;SDS011;4117;53.622;9.958;2023-09-19T04:18:16;5.20;;;2.00;;
8151;SDS011;4117;53.622;9.958;2023-09-19T04:20:48;4.50;;;1.87;;
8151;SDS011;4117;53.622;9.958;2023-09-19T04:23:15;5.70;;;1.93;;
8151;SDS011;4117;53.622;9.958;2023-09-19T04:25:43;4.77;;;1.70;;
8151;SDS011;4117;53.622;9.958;2023-09-19T04:28:10;4.63;;;1.70;;
8151;SDS011;4117;53.622;9.958;2023-09-19T04:30:37;6.07;;;2.03;;
8151;SDS011;4117;53.622;9.958;2023-09-19T04:33:07;5.80;;;2.10;;
8151;SDS011;4117;53.622;9.958;2023-09-19T04:35:34;6.97;;;2.10;;
8151;SDS011;4117;53.622;9.958;2023-09-19T04:38:02;6.17;;;2.00;;
8151;SDS011;4117;53.622;9.958;2023-09-19T04:40:32;4.10;;;1.80;;
8151;SDS011;4117;53.622;9.958;2023-09-19T04:42:59;4.80;;;2.03;;
8151;SDS011;4117;53.622;9.958;2023-09-19T04:45:26;5.00;;;2.00;;
8151;SDS011;4117;53.622;9.958;2023-09-19T04:47:54;5.93;;;1.93;;
8151;SDS011;4117;53.622;9.958;2023-09-19T04:50:21;6.93;;;1.73;;
8151;SDS011;4117;53.622;9.958;2023-09-19T04:52:51;6.87;;;2.10;;
8151;SDS011;4117;53.622;9.958;2023-09-19T04:55:20;6.60;;;2.10;;
8151;SDS011;4117;53.622;9.958;2023-09-19T04:57:47;9.40;;;2.37;;
8151;SDS011;4117;53.622;9.958;2023-09-19T05:00:16;5.03;;;1.90;;
8151;SDS011;4117;53.622;9.958;2023-09-19T05:02:48;6.57;;;2.20;;
8151;SDS011;4117;53.622;9.958;2023-09-19T05:05:16;10.20;;;2.10;;
8151;SDS011;4117;53.622;9.958;2023-09-19T05:07:44;4.97;;;1.73;;
8151;SDS011;4117;53.622;9.958;2023-09-19T05:10:12;5.33;;;1.93;;
8151;SDS011;4117;53.622;9.958;2023-09-19T05:12:40;7.43;;;2.27;;
8151;SDS011;4117;53.622;9.958;2023-09-19T05:15:10;6.57;;;1.90;;
8151;SDS011;4117;53.622;9.958;2023-09-19T05:17:37;5.37;;;2.00;;
8151;SDS011;4117;53.622;9.958;2023-09-19T05:20:05;6.80;;;2.00;;
8151;SDS011;4117;53.622;9.958;2023-09-19T05:22:46;6.87;;;2.00;;
8151;SDS011;4117;53.622;9.958;2023-09-19T05:25:12;4.47;;;1.70;;
8151;SDS011;4117;53.622;9.958;2023-09-19T05:27:42;7.97;;;1.97;;
8151;SDS011;4117;53.622;9.958;2023-09-19T05:30:10;6.73;;;1.97;;
8151;SDS011;4117;53.622;9.958;2023-09-19T05:32:39;5.80;;;2.07;;
8151;SDS011;4117;53.622;9.958;2023-09-19T05:35:06;5.90;;;1.80;;
8151;SDS011;4117;53.622;9.958;2023-09-19T05:37:34;7.00;;;1.90;;
8151;SDS011;4117;53.622;9.958;2023-09-19T05:40:03;7.03;;;2.00;;
8151;SDS011;4117;53.622;9.958;2023-09-19T05:42:35;8.77;;;2.17;;
8151;SDS011;4117;53.622;9.958;2023-09-19T05:45:05;7.63;;;1.90;;
8151;SDS011;4117;53.622;9.958;2023-09-19T05:47:32;6.90;;;2.30;;
8151;SDS011;4117;53.622;9.958;2023-09-19T05:49:59;5.90;;;1.70;;
8151;SDS011;4117;53.622;9.958;2023-09-19T05:52:26;7.07;;;2.00;;
8151;SDS011;4117;53.622;9.958;2023-09-19T05:54:53;4.37;;;1.87;;
8151;SDS011;4117;53.622;9.958;2023-09-19T05:57:21;7.37;;;2.07;;
8151;SDS011;4117;53.622;9.958;2023-09-19T05:59:49;8.77;;;2.13;;
8151;SDS011;4117;53.622;9.958;2023-09-19T06:02:18;5.30;;;2.00;;
8151;SDS011;4117;53.622;9.958;2023-09-19T06:04:45;6.90;;;1.80;;
8151;SDS011;4117;53.622;9.958;2023-09-19T06:07:12;8.50;;;2.07;;
8151;SDS011;4117;53.622;9.958;2023-09-19T06:09:40;8.77;;;2.10;;
8151;SDS011;4117;53.622;9.958;2023-09-19T06:12:07;7.47;;;2.13;;
8151;SDS011;4117;53.622;9.958;2023-09-19T06:14:34;7.17;;;2.00;;
8151;SDS011;4117;53.622;9.958;2023-09-19T06:17:01;6.90;;;2.27;;
8151;SDS011;4117;53.622;9.958;2023-09-19T06:19:30;8.73;;;1.93;;
8151;SDS011;4117;53.622;9.958;2023-09-19T06:21:58;8.57;;;2.20;;
8151;SDS011;4117;53.622;9.958;2023-09-19T06:24:25;6.10;;;2.13;;
8151;SDS011;4117;53.622;9.958;2023-09-19T06:26:52;7.80;;;2.47;;
8151;SDS011;4117;53.622;9.958;2023-09-19T06:29:20;11.53;;;2.23;;
8151;SDS011;4117;53.622;9.958;2023-09-19T06:31:48;13.43;;;2.13;;
8151;SDS011;4117;53.622;9.958;2023-09-19T06:34:16;6.30;;;2.00;;
8151;SDS011;4117;53.622;9.958;2023-09-19T06:36:44;6.70;;;2.10;;
8151;SDS011;4117;53.622;9.958;2023-09-19T06:39:11;8.23;;;2.27;;
8151;SDS011;4117;53.622;9.958;2023-09-19T06:41:38;6.57;;;2.20;;
8151;SDS011;4117;53.622;9.958;2023-09-19T06:44:06;7.63;;;2.40;;
8151;SDS011;4117;53.622;9.958;2023-09-19T06:46:34;11.37;;;2.40;;
8151;SDS011;4117;53.622;9.958;2023-09-19T06:49:04;3.93;;;1.70;;
8151;SDS011;4117;53.622;9.958;2023-09-19T06:51:31;6.73;;;2.27;;
8151;SDS011;4117;53.622;9.958;2023-09-19T06:54:01;9.97;;;2.47;;
8151;SDS011;4117;53.622;9.958;2023-09-19T06:56:30;7.53;;;1.93;;
8151;SDS011;4117;53.622;9.958;2023-09-19T06:58:58;8.40;;;2.43;;
8151;SDS011;4117;53.622;9.958;2023-09-19T07:01:25;9.67;;;2.50;;
8151;SDS011;4117;53.622;9.958;2023-09-19T07:03:52;11.33;;;2.40;;
8151;SDS011;4117;53.622;9.958;2023-09-19T07:06:19;14.33;;;2.27;;
8151;SDS011;4117;53.622;9.958;2023-09-19T07:08:46;7.47;;;2.00;;
8151;SDS011;4117;53.622;9.958;2023-09-19T07:11:16;11.50;;;2.70;;
8151;SDS011;4117;53.622;9.958;2023-09-19T07:13:43;8.57;;;2.10;;
8151;SDS011;4117;53.622;9.958;2023-09-19T07:16:10;6.93;;;2.20;;
8151;SDS011;4117;53.622;9.958;2023-09-19T07:18:52;6.37;;;2.17;;
8151;SDS011;4117;53.622;9.958;2023-09-19T07:21:20;10.00;;;2.40;;
8151;SDS011;4117;53.622;9.958;2023-09-19T07:23:47;10.13;;;2.43;;
8151;SDS011;4117;53.622;9.958;2023-09-19T07:26:14;8.13;;;2.20;;
8151;SDS011;4117;53.622;9.958;2023-09-19T07:28:43;6.37;;;2.10;;
8151;SDS011;4117;53.622;9.958;2023-09-19T07:31:10;6.07;;;2.20;;
8151;SDS011;4117;53.622;9.958;2023-09-19T07:33:39;8.77;;;2.67;;
8151;SDS011;4117;53.622;9.958;2023-09-19T07:36:09;6.43;;;2.20;;
8151;SDS011;4117;53.622;9.958;2023-09-19T07:38:38;7.17;;;2.60;;
8151;SDS011;4117;53.622;9.958;2023-09-19T07:41:05;10.00;;;2.70;;
8151;SDS011;4117;53.622;9.958;2023-09-19T07:43:35;9.63;;;2.47;;
8151;SDS011;4117;53.622;9.958;2023-09-19T07:46:04;7.57;;;2.20;;
8151;SDS011;4117;53.622;9.958;2023-09-19T07:48:33;10.70;;;2.40;;
8151;SDS011;4117;53.622;9.958;2023-09-19T07:51:04;9.07;;;2.53;;
8151;SDS011;4117;53.622;9.958;2023-09-19T07:53:31;8.47;;;2.43;;
8151;SDS011;4117;53.622;9.958;2023-09-19T07:56:03;6.37;;;2.30;;
8151;SDS011;4117;53.622;9.958;2023-09-19T07:58:31;7.20;;;2.20;;
8151;SDS011;4117;53.622;9.958;2023-09-19T08:01:04;11.90;;;2.60;;
8151;SDS011;4117;53.622;9.958;2023-09-19T08:03:31;5.43;;;1.93;;
8151;SDS011;4117;53.622;9.958;2023-09-19T08:05:59;7.80;;;2.13;;
8151;SDS011;4117;53.622;9.958;2023-09-19T08:08:26;8.17;;;2.40;;
8151;SDS011;4117;53.622;9.958;2023-09-19T08:10:53;6.10;;;2.00;;
8151;SDS011;4117;53.622;9.958;2023-09-19T08:13:21;7.60;;;2.37;;
8151;SDS011;4117;53.622;9.958;2023-09-19T08:15:49;7.30;;;2.23;;
8151;SDS011;4117;53.622;9.958;2023-09-19T08:18:19;12.27;;;2.60;;
8151;SDS011;4117;53.622;9.958;2023-09-19T08:20:50;9.80;;;2.40;;
8151;SDS011;4117;53.622;9.958;2023-09-19T08:23:20;7.70;;;2.43;;
8151;SDS011;4117;53.622;9.958;2023-09-19T08:25:47;8.73;;;2.23;;
8151;SDS011;4117;53.622;9.958;2023-09-19T08:28:14;6.83;;;2.40;;
8151;SDS011;4117;53.622;9.958;2023-09-19T08:30:44;11.63;;;2.80;;
8151;SDS011;4117;53.622;9.958;2023-09-19T08:33:11;8.47;;;2.80;;
8151;SDS011;4117;53.622;9.958;2023-09-19T08:35:41;8.30;;;2.50;;
8151;SDS011;4117;53.622;9.958;2023-09-19T08:38:10;8.57;;;2.60;;
8151;SDS011;4117;53.622;9.958;2023-09-19T08:40:39;8.53;;;2.80;;
8151;SDS011;4117;53.622;9.958;2023-09-19T08:43:07;8.67;;;2.53;;
8151;SDS011;4117;53.622;9.958;2023-09-19T08:45:34;10.77;;;2.50;;
8151;SDS011;4117;53.622;9.958;2023-09-19T08:48:05;9.50;;;2.50;;
8151;SDS011;4117;53.622;9.958;2023-09-19T08:50:52;11.97;;;2.60;;
8151;SDS011;4117;53.622;9.958;2023-09-19T08:53:26;8.13;;;2.40;;
8151;SDS011;4117;53.622;9.958;2023-09-19T08:55:58;12.03;;;2.67;;
8151;SDS011;4117;53.622;9.958;2023-09-19T08:58:30;9.33;;;2.40;;
8151;SDS011;4117;53.622;9.958;2023-09-19T09:01:06;12.13;;;2.40;;
8151;SDS011;4117;53.622;9.958;2023-09-19T09:03:35;10.17;;;2.40;;
8151;SDS011;4117;53.622;9.958;2023-09-19T09:06:07;10.03;;;2.63;;
8151;SDS011;4117;53.622;9.958;2023-09-19T09:08:36;10.30;;;2.43;;
8151;SDS011;4117;53.622;9.958;2023-09-19T09:11:04;9.50;;;2.27;;
8151;SDS011;4117;53.622;9.958;2023-09-19T09:13:33;9.03;;;2.73;;
8151;SDS011;4117;53.622;9.958;2023-09-19T09:16:01;12.23;;;2.77;;
8151;SDS011;4117;53.622;9.958;2023-09-19T09:18:29;7.00;;;2.47;;
8151;SDS011;4117;53.622;9.958;2023-09-19T09:20:56;8.77;;;2.87;;
8151;SDS011;4117;53.622;9.958;2023-09-19T09:23:24;12.43;;;2.50;;
8151;SDS011;4117;53.622;9.958;2023-09-19T09:25:55;12.47;;;2.70;;
8151;SDS011;4117;53.622;9.958;2023-09-19T09:28:27;9.30;;;2.97;;
8151;SDS011;4117;53.622;9.958;2023-09-19T09:30:56;8.23;;;2.40;;
8151;SDS011;4117;53.622;9.958;2023-09-19T09:33:24;10.20;;;2.67;;
8151;SDS011;4117;53.622;9.958;2023-09-19T09:35:52;11.03;;;2.90;;
8151;SDS011;4117;53.622;9.958;2023-09-19T09:38:22;8.17;;;2.80;;
8151;SDS011;4117;53.622;9.958;2023-09-19T09:40:54;8.77;;;2.93;;
8151;SDS011;4117;53.622;9.958;2023-09-19T09:43:29;12.70;;;2.50;;
8151;SDS011;4117;53.622;9.958;2023-09-19T09:46:07;9.90;;;2.37;;
8151;SDS011;4117;53.622;9.958;2023-09-19T09:48:55;9.27;;;2.50;;
8151;SDS011;4117;53.622;9.958;2023-09-19T09:51:51;5.70;;;2.00;;
8151;SDS011;4117;53.622;9.958;2023-09-19T09:54:26;9.20;;;2.40;;
8151;SDS011;4117;53.622;9.958;2023-09-19T09:57:03;10.93;;;2.80;;
8151;SDS011;4117;53.622;9.958;2023-09-19T09:59:43;7.97;;;2.33;;
8151;SDS011;4117;53.622;9.958;2023-09-19T10:02:15;13.97;;;2.70;;
8151;SDS011;4117;53.622;9.958;2023-09-19T10:04:50;10.03;;;2.80;;
8151;SDS011;4117;53.622;9.958;2023-09-19T10:07:27;6.63;;;2.30;;
8151;SDS011;4117;53.622;9.958;2023-09-19T10:09:57;7.70;;;2.47;;
8151;SDS011;4117;53.622;9.958;2023-09-19T10:12:37;8.40;;;2.30;;
8151;SDS011;4117;53.622;9.958;2023-09-19T10:15:08;10.80;;;2.57;;
8151;SDS011;4117;53.622;9.958;2023-09-19T10:17:42;11.43;;;2.33;;
8151;SDS011;4117;53.622;9.958;2023-09-19T10:20:15;9.77;;;2.87;;
8151;SDS011;4117;53.622;9.958;2023-09-19T10:23:03;9.03;;;2.30;;
8151;SDS011;4117;53.622;9.958;2023-09-19T10:25:36;11.40;;;2.60;;
8151;SDS011;4117;53.622;9.958;2023-09-19T10:28:05;7.43;;;1.87;;
8151;SDS011;4117;53.622;9.958;2023-09-19T10:30:36;7.00;;;2.20;;
8151;SDS011;4117;53.622;9.958;2023-09-19T10:33:07;11.37;;;2.53;;
8151;SDS011;4117;53.622;9.958;2023-09-19T10:35:35;7.87;;;2.47;;
8151;SDS011;4117;53.622;9.958;2023-09-19T10:38:06;6.80;;;2.33;;
8151;SDS011;4117;53.622;9.958;2023-09-19T10:40:35;6.30;;;2.10;;
8151;SDS011;4117;53.622;9.958;2023-09-19T10:43:07;7.90;;;2.13;;
8151;SDS011;4117;53.622;9.958;2023-09-19T10:45:40;8.30;;;2.37;;
8151;SDS011;4117;53.622;9.958;2023-09-19T10:48:09;8.77;;;2.10;;
8151;SDS011;4117;53.622;9.958;2023-09-19T10:50:41;11.17;;;2.50;;
8151;SDS011;4117;53.622;9.958;2023-09-19T10:53:12;10.50;;;2.93;;
8151;SDS011;4117;53.622;9.958;2023-09-19T10:55:40;9.53;;;2.73;;
8151;SDS011;4117;53.622;9.958;2023-09-19T10:58:25;7.33;;;2.67;;
8151;SDS011;4117;53.622;9.958;2023-09-19T11:00:54;10.60;;;2.90;;
8151;SDS011;4117;53.622;9.958;2023-09-19T11:03:22;10.73;;;2.43;;
8151;SDS011;4117;53.622;9.958;2023-09-19T11:06:09;8.40;;;2.37;;
8151;SDS011;4117;53.622;9.958;2023-09-19T11:08:58;9.40;;;2.40;;
8151;SDS011;4117;53.622;9.958;2023-09-19T11:11:48;7.03;;;2.10;;
8151;SDS011;4117;53.622;9.958;2023-09-19T11:14:32;10.07;;;2.30;;
8151;SDS011;4117;53.622;9.958;2023-09-19T11:20:20;7.37;;;2.20;;
8151;SDS011;4117;53.622;9.958;2023-09-19T11:23:22;6.27;;;2.00;;
8151;SDS011;4117;53.622;9.958;2023-09-19T11:25:53;11.20;;;2.30;;
8151;SDS011;4117;53.622;9.958;2023-09-19T11:28:33;7.60;;;2.37;;
8151;SDS011;4117;53.622;9.958;2023-09-19T11:34:38;10.03;;;2.40;;
8151;SDS011;4117;53.622;9.958;2023-09-19T11:40:36;9.40;;;2.20;;
8151;SDS011;4117;53.622;9.958;2023-09-19T11:46:08;11.53;;;2.23;;
8151;SDS011;4117;53.622;9.958;2023-09-19T11:48:37;6.33;;;2.23;;
8151;SDS011;4117;53.622;9.958;2023-09-19T11:51:18;5.97;;;2.03;;
8151;SDS011;4117;53.622;9.958;2023-09-19T11:53:47;8.93;;;2.17;;
8151;SDS011;4117;53.622;9.958;2023-09-19T11:56:15;5.57;;;2.07;;
8151;SDS011;4117;53.622;9.958;2023-09-19T11:58:45;8.63;;;2.20;;
8151;SDS011;4117;53.622;9.958;2023-09-19T12:01:21;6.70;;;2.40;;
8151;SDS011;4117;53.622;9.958;2023-09-19T12:03:52;7.07;;;2.33;;
8151;SDS011;4117;53.622;9.958;2023-09-19T12:06:24;11.27;;;2.20;;
8151;SDS011;4117;53.622;9.958;2023-09-19T12:08:52;9.93;;;3.10;;
8151;SDS011;4117;53.622;9.958;2023-09-19T12:11:21;7.43;;;2.57;;
8151;SDS011;4117;53.622;9.958;2023-09-19T12:13:49;10.70;;;2.33;;
8151;SDS011;4117;53.622;9.958;2023-09-19T12:16:18;6.77;;;2.40;;
8151;SDS011;4117;53.622;9.958;2023-09-19T12:18:48;6.70;;;2.50;;
8151;SDS011;4117;53.622;9.958;2023-09-19T12:21:27;16.00;;;2.43;;
8151;SDS011;4117;53.622;9.958;2023-09-19T12:26:45;9.53;;;2.70;;
8151;SDS011;4117;53.622;9.958;2023-09-19T12:29:14;10.50;;;2.70;;
8151;SDS011;4117;53.622;9.958;2023-09-19T12:31:53;8.43;;;2.10;;
8151;SDS011;4117;53.622;9.958;2023-09-19T12:34:23;8.37;;;2.50;;
8151;SDS011;4117;53.622;9.958;2023-09-19T12:37:06;11.90;;;2.50;;
8151;SDS011;4117;53.622;9.958;2023-09-19T12:39:38;10.93;;;2.60;;
8151;SDS011;4117;53.622;9.958;2023-09-19T12:42:08;7.00;;;2.13;;
8151;SDS011;4117;53.622;9.958;2023-09-19T12:44:40;9.80;;;2.37;;
8151;SDS011;4117;53.622;9.958;2023-09-19T12:47:10;5.30;;;2.30;;
8151;SDS011;4117;53.622;9.958;2023-09-19T12:52:43;10.53;;;2.70;;
8151;SDS011;4117;53.622;9.958;2023-09-19T12:55:24;8.60;;;2.50;;
8151;SDS011;4117;53.622;9.958;2023-09-19T12:58:08;8.77;;;2.50;;
8151;SDS011;4117;53.622;9.958;2023-09-19T13:00:38;9.13;;;2.67;;
8151;SDS011;4117;53.622;9.958;2023-09-19T13:03:11;8.23;;;2.43;;
8151;SDS011;4117;53.622;9.958;2023-09-19T13:05:46;9.47;;;2.40;;
8151;SDS011;4117;53.622;9.958;2023-09-19T13:08:20;7.80;;;2.30;;
8151;SDS011;4117;53.622;9.958;2023-09-19T13:11:04;10.43;;;2.70;;
8151;SDS011;4117;53.622;9.958;2023-09-19T13:13:35;10.33;;;2.70;;
8151;SDS011;4117;53.622;9.958;2023-09-19T13:16:03;6.80;;;2.30;;
8151;SDS011;4117;53.622;9.958;2023-09-19T13:18:41;6.97;;;2.40;;
8151;SDS011;4117;53.622;9.958;2023-09-19T13:21:12;10.43;;;2.70;;
8151;SDS011;4117;53.622;9.958;2023-09-19T13:23:54;7.67;;;2.43;;
8151;SDS011;4117;53.622;9.958;2023-09-19T13:26:24;13.33;;;2.87;;
8151;SDS011;4117;53.622;9.958;2023-09-19T13:28:53;8.50;;;2.27;;
8151;SDS011;4117;53.622;9.958;2023-09-19T13:31:20;9.73;;;2.37;;
8151;SDS011;4117;53.622;9.958;2023-09-19T13:33:49;12.57;;;2.70;;
8151;SDS011;4117;53.622;9.958;2023-09-19T13:36:17;12.17;;;2.67;;
8151;SDS011;4117;53.622;9.958;2023-09-19T13:38:44;10.27;;;3.00;;
8151;SDS011;4117;53.622;9.958;2023-09-19T13:41:15;7.60;;;2.30;;
8151;SDS011;4117;53.622;9.958;2023-09-19T13:43:42;10.17;;;2.50;;
8151;SDS011;4117;53.622;9.958;2023-09-19T13:46:13;7.20;;;2.30;;
8151;SDS011;4117;53.622;9.958;2023-09-19T13:48:42;9.17;;;2.50;;
8151;SDS011;4117;53.622;9.958;2023-09-19T13:51:09;8.47;;;2.20;;
8151;SDS011;4117;53.622;9.958;2023-09-19T13:53:36;9.87;;;2.53;;
8151;SDS011;4117;53.622;9.958;2023-09-19T13:56:04;7.40;;;2.73;;
8151;SDS011;4117;53.622;9.958;2023-09-19T13:58:33;5.50;;;2.37;;
8151;SDS011;4117;53.622;9.958;2023-09-19T14:01:00;8.00;;;2.70;;
8151;SDS011;4117;53.622;9.958;2023-09-19T14:03:28;5.27;;;2.20;;
8151;SDS011;4117;53.622;9.958;2023-09-19T14:05:55;6.33;;;2.27;;
8151;SDS011;4117;53.622;9.958;2023-09-19T14:08:22;10.23;;;2.60;;
8151;SDS011;4117;53.622;9.958;2023-09-19T14:10:49;6.77;;;2.20;;
8151;SDS011;4117;53.622;9.958;2023-09-19T14:13:16;10.77;;;2.60;;
8151;SDS011;4117;53.622;9.958;2023-09-19T14:15:46;15.00;;;3.03;;
8151;SDS011;4117;53.622;9.958;2023-09-19T14:18:14;7.83;;;2.43;;
8151;SDS011;4117;53.622;9.958;2023-09-19T14:20:41;9.13;;;2.67;;
8151;SDS011;4117;53.622;9.958;2023-09-19T14:23:09;8.47;;;2.47;;
8151;SDS011;4117;53.622;9.958;2023-09-19T14:25:36;7.67;;;2.20;;
8151;SDS011;4117;53.622;9.958;2023-09-19T14:28:04;16.43;;;2.50;;
8151;SDS011;4117;53.622;9.958;2023-09-19T14:30:33;7.07;;;2.33;;
8151;SDS011;4117;53.622;9.958;2023-09-19T14:33:03;7.23;;;2.33;;
8151;SDS011;4117;53.622;9.958;2023-09-19T14:35:31;15.60;;;2.57;;
8151;SDS011;4117;53.622;9.958;2023-09-19T14:37:58;8.40;;;2.67;;
8151;SDS011;4117;53.622;9.958;2023-09-19T14:40:25;6.63;;;2.37;;
8151;SDS011;4117;53.622;9.958;2023-09-19T14:42:52;7.50;;;2.43;;
8151;SDS011;4117;53.622;9.958;2023-09-19T14:45:19;7.50;;;2.37;;
8151;SDS011;4117;53.622;9.958;2023-09-19T14:47:46;11.17;;;2.47;;
8151;SDS011;4117;53.622;9.958;2023-09-19T14:50:15;6.53;;;2.10;;
8151;SDS011;4117;53.622;9.958;2023-09-19T14:52:42;9.47;;;2.40;;
8151;SDS011;4117;53.622;9.958;2023-09-19T14:55:09;10.10;;;2.53;;
8151;SDS011;4117;53.622;9.958;2023-09-19T14:57:39;9.53;;;2.50;;
8151;SDS011;4117;53.622;9.958;2023-09-19T15:00:07;8.90;;;2.60;;
8151;SDS011;4117;53.622;9.958;2023-09-19T15:02:38;8.83;;;2.17;;
8151;SDS011;4117;53.622;9.958;2023-09-19T15:05:06;8.93;;;2.27;;
8151;SDS011;4117;53.622;9.958;2023-09-19T15:07:36;8.10;;;2.53;;
8151;SDS011;4117;53.622;9.958;2023-09-19T15:10:04;10.23;;;2.37;;
8151;SDS011;4117;53.622;9.958;2023-09-19T15:12:36;8.00;;;2.50;;
8151;SDS011;4117;53.622;9.958;2023-09-19T15:15:03;7.43;;;2.20;;
8151;SDS011;4117;53.622;9.958;2023-09-19T15:17:32;6.77;;;2.17;;
8151;SDS011;4117;53.622;9.958;2023-09-19T15:19:59;8.37;;;2.80;;
8151;SDS011;4117;53.622;9.958;2023-09-19T15:22:27;10.10;;;2.70;;
8151;SDS011;4117;53.622;9.958;2023-09-19T15:24:55;5.93;;;2.20;;
8151;SDS011;4117;53.622;9.958;2023-09-19T15:27:22;7.47;;;2.40;;
8151;SDS011;4117;53.622;9.958;2023-09-19T15:29:49;8.37;;;2.50;;
8151;SDS011;4117;53.622;9.958;2023-09-19T15:32:16;9.63;;;2.70;;
8151;SDS011;4117;53.622;9.958;2023-09-19T15:34:43;8.63;;;2.33;;
8151;SDS011;4117;53.622;9.958;2023-09-19T15:37:10;6.17;;;2.30;;
8151;SDS011;4117;53.622;9.958;2023-09-19T15:39:45;7.87;;;2.47;;
8151;SDS011;4117;53.622;9.958;2023-09-19T15:42:13;8.33;;;2.40;;
8151;SDS011;4117;53.622;9.958;2023-09-19T15:44:41;8.30;;;2.80;;
8151;SDS011;4117;53.622;9.958;2023-09-19T15:47:09;10.37;;;2.57;;
8151;SDS011;4117;53.622;9.958;2023-09-19T15:49:36;8.17;;;2.10;;
8151;SDS011;4117;53.622;9.958;2023-09-19T15:52:03;6.27;;;2.40;;